Decoded Metar for LETU ( in ) (IATA:) | Meteo·Mobile Aviation Weather
aviador You're here:

LETU Decoded Metar

in
Report Time2019-07-19 18:30:00
UTC Time2019-07-19 18:45:12
Flight Rules vfr VFR
Wind120° at 09 kt
Visibility9999 m
Phenomena:N/A
Clouds:N/A
Expected CloudBase > 9,200 ft AGL from Temp-Dew spread
CeilingNone
Temp33°C
Dew Point10°C (24% RH)
Heat Index31.3°C
AAT29.7°C
QNH1012 hPa
Raw Report
METAR LETU 191830Z AUTO 12009KT 9999 NSC 33/10 Q1012=

Extra information for LETU:More info

Social comments